sensor_id;sensor_type;location;lat;lon;timestamp;P1;durP1;ratioP1;P2;durP2;ratioP2
82779;SDS011;72511;45.120;20.720;2023-08-31T00:02:09;6.67;;;5.30;;
82779;SDS011;72511;45.120;20.720;2023-08-31T00:12:10;5.53;;;4.53;;
82779;SDS011;72511;45.120;20.720;2023-08-31T00:22:10;5.45;;;4.65;;
82779;SDS011;72511;45.120;20.720;2023-08-31T00:32:11;8.30;;;5.88;;
82779;SDS011;72511;45.120;20.720;2023-08-31T00:42:12;7.28;;;4.82;;
82779;SDS011;72511;45.120;20.720;2023-08-31T00:52:13;3.40;;;3.08;;
82779;SDS011;72511;45.120;20.720;2023-08-31T01:02:16;4.77;;;4.00;;
82779;SDS011;72511;45.120;20.720;2023-08-31T01:22:39;8.93;;;6.05;;
82779;SDS011;72511;45.120;20.720;2023-08-31T01:32:43;8.23;;;5.43;;
82779;SDS011;72511;45.120;20.720;2023-08-31T01:42:44;6.45;;;4.95;;
82779;SDS011;72511;45.120;20.720;2023-08-31T01:52:47;10.05;;;8.00;;
82779;SDS011;72511;45.120;20.720;2023-08-31T02:02:47;6.03;;;4.88;;
82779;SDS011;72511;45.120;20.720;2023-08-31T02:12:48;10.57;;;7.45;;
82779;SDS011;72511;45.120;20.720;2023-08-31T02:22:48;10.82;;;8.07;;
82779;SDS011;72511;45.120;20.720;2023-08-31T02:32:49;12.73;;;8.65;;
82779;SDS011;72511;45.120;20.720;2023-08-31T02:42:50;12.73;;;8.57;;
82779;SDS011;72511;45.120;20.720;2023-08-31T02:52:51;8.57;;;6.82;;
82779;SDS011;72511;45.120;20.720;2023-08-31T03:02:51;5.90;;;5.20;;
82779;SDS011;72511;45.120;20.720;2023-08-31T03:12:52;6.25;;;4.72;;
82779;SDS011;72511;45.120;20.720;2023-08-31T03:22:53;13.47;;;7.27;;
82779;SDS011;72511;45.120;20.720;2023-08-31T03:32:53;10.73;;;7.28;;
82779;SDS011;72511;45.120;20.720;2023-08-31T03:42:54;14.48;;;8.80;;
82779;SDS011;72511;45.120;20.720;2023-08-31T03:52:55;14.02;;;7.63;;
82779;SDS011;72511;45.120;20.720;2023-08-31T04:02:57;99.63;;;12.80;;
82779;SDS011;72511;45.120;20.720;2023-08-31T04:12:58;12.32;;;7.13;;
82779;SDS011;72511;45.120;20.720;2023-08-31T04:33:02;8.75;;;6.05;;
82779;SDS011;72511;45.120;20.720;2023-08-31T04:43:03;72.80;;;12.45;;
82779;SDS011;72511;45.120;20.720;2023-08-31T04:53:04;10.17;;;6.83;;
82779;SDS011;72511;45.120;20.720;2023-08-31T05:03:05;77.67;;;11.47;;
82779;SDS011;72511;45.120;20.720;2023-08-31T05:13:05;10.10;;;6.60;;
82779;SDS011;72511;45.120;20.720;2023-08-31T05:23:06;10.07;;;6.73;;
82779;SDS011;72511;45.120;20.720;2023-08-31T05:33:06;8.52;;;6.80;;
82779;SDS011;72511;45.120;20.720;2023-08-31T05:43:07;8.75;;;6.75;;
82779;SDS011;72511;45.120;20.720;2023-08-31T05:53:07;11.67;;;6.93;;
82779;SDS011;72511;45.120;20.720;2023-08-31T06:03:08;8.68;;;5.85;;
82779;SDS011;72511;45.120;20.720;2023-08-31T06:13:08;7.60;;;5.20;;
82779;SDS011;72511;45.120;20.720;2023-08-31T06:23:09;9.30;;;7.00;;
82779;SDS011;72511;45.120;20.720;2023-08-31T06:33:10;11.45;;;7.07;;
82779;SDS011;72511;45.120;20.720;2023-08-31T06:43:11;9.32;;;6.47;;
82779;SDS011;72511;45.120;20.720;2023-08-31T06:53:11;6.57;;;5.03;;
82779;SDS011;72511;45.120;20.720;2023-08-31T07:03:12;4.95;;;4.13;;
82779;SDS011;72511;45.120;20.720;2023-08-31T07:13:12;4.30;;;3.90;;
82779;SDS011;72511;45.120;20.720;2023-08-31T07:23:13;6.18;;;5.00;;
82779;SDS011;72511;45.120;20.720;2023-08-31T07:33:13;8.00;;;6.10;;
82779;SDS011;72511;45.120;20.720;2023-08-31T07:43:14;7.65;;;5.15;;
82779;SDS011;72511;45.120;20.720;2023-08-31T07:53:14;6.35;;;4.95;;
82779;SDS011;72511;45.120;20.720;2023-08-31T08:03:15;5.22;;;4.40;;
82779;SDS011;72511;45.120;20.720;2023-08-31T08:13:15;4.85;;;4.40;;
82779;SDS011;72511;45.120;20.720;2023-08-31T08:23:16;4.28;;;3.88;;
82779;SDS011;72511;45.120;20.720;2023-08-31T08:33:16;3.70;;;3.40;;
82779;SDS011;72511;45.120;20.720;2023-08-31T08:43:18;3.85;;;3.53;;
82779;SDS011;72511;45.120;20.720;2023-08-31T08:53:25;3.35;;;2.75;;
82779;SDS011;72511;45.120;20.720;2023-08-31T09:03:26;3.40;;;2.90;;
82779;SDS011;72511;45.120;20.720;2023-08-31T09:13:27;3.63;;;3.33;;
82779;SDS011;72511;45.120;20.720;2023-08-31T09:23:28;3.72;;;3.42;;
82779;SDS011;72511;45.120;20.720;2023-08-31T09:33:29;3.58;;;3.05;;
82779;SDS011;72511;45.120;20.720;2023-08-31T09:43:30;3.17;;;2.75;;
82779;SDS011;72511;45.120;20.720;2023-08-31T09:53:31;4.10;;;2.78;;
82779;SDS011;72511;45.120;20.720;2023-08-31T10:03:31;2.85;;;2.65;;
82779;SDS011;72511;45.120;20.720;2023-08-31T10:13:33;2.60;;;2.40;;
82779;SDS011;72511;45.120;20.720;2023-08-31T10:23:34;2.42;;;2.22;;
82779;SDS011;72511;45.120;20.720;2023-08-31T10:33:41;2.47;;;2.00;;
82779;SDS011;72511;45.120;20.720;2023-08-31T10:43:49;2.50;;;2.30;;
82779;SDS011;72511;45.120;20.720;2023-08-31T10:53:51;2.33;;;2.10;;
82779;SDS011;72511;45.120;20.720;2023-08-31T11:04:00;3.57;;;2.60;;
82779;SDS011;72511;45.120;20.720;2023-08-31T11:14:10;2.22;;;1.85;;
82779;SDS011;72511;45.120;20.720;2023-08-31T11:24:11;3.00;;;2.60;;
82779;SDS011;72511;45.120;20.720;2023-08-31T11:34:12;2.85;;;2.35;;
82779;SDS011;72511;45.120;20.720;2023-08-31T11:44:17;2.17;;;1.98;;
82779;SDS011;72511;45.120;20.720;2023-08-31T11:54:18;1.67;;;1.50;;
82779;SDS011;72511;45.120;20.720;2023-08-31T12:04:21;1.80;;;1.70;;
82779;SDS011;72511;45.120;20.720;2023-08-31T12:14:23;1.58;;;1.48;;
82779;SDS011;72511;45.120;20.720;2023-08-31T12:24:25;2.70;;;1.40;;
82779;SDS011;72511;45.120;20.720;2023-08-31T12:34:26;2.80;;;1.93;;
82779;SDS011;72511;45.120;20.720;2023-08-31T12:44:26;1.65;;;1.40;;
82779;SDS011;72511;45.120;20.720;2023-08-31T12:54:27;3.05;;;2.17;;
82779;SDS011;72511;45.120;20.720;2023-08-31T13:04:27;3.33;;;1.60;;
82779;SDS011;72511;45.120;20.720;2023-08-31T13:14:28;2.58;;;1.48;;
82779;SDS011;72511;45.120;20.720;2023-08-31T13:24:28;2.22;;;1.58;;
82779;SDS011;72511;45.120;20.720;2023-08-31T13:34:29;2.03;;;1.83;;
82779;SDS011;72511;45.120;20.720;2023-08-31T13:44:29;1.70;;;1.55;;
82779;SDS011;72511;45.120;20.720;2023-08-31T13:54:30;2.40;;;1.60;;
82779;SDS011;72511;45.120;20.720;2023-08-31T14:04:31;4.65;;;1.55;;
82779;SDS011;72511;45.120;20.720;2023-08-31T14:14:33;4.03;;;2.03;;
82779;SDS011;72511;45.120;20.720;2023-08-31T14:24:34;2.30;;;1.80;;
82779;SDS011;72511;45.120;20.720;2023-08-31T14:34:36;2.33;;;2.00;;
82779;SDS011;72511;45.120;20.720;2023-08-31T14:44:36;2.83;;;2.63;;
82779;SDS011;72511;45.120;20.720;2023-08-31T14:54:37;2.28;;;2.10;;
82779;SDS011;72511;45.120;20.720;2023-08-31T15:04:38;4.07;;;3.67;;
82779;SDS011;72511;45.120;20.720;2023-08-31T15:14:38;3.70;;;3.40;;
82779;SDS011;72511;45.120;20.720;2023-08-31T15:24:38;3.97;;;3.58;;
82779;SDS011;72511;45.120;20.720;2023-08-31T15:34:39;4.60;;;4.20;;
82779;SDS011;72511;45.120;20.720;2023-08-31T15:44:40;5.72;;;5.32;;
82779;SDS011;72511;45.120;20.720;2023-08-31T15:54:41;5.88;;;5.38;;
82779;SDS011;72511;45.120;20.720;2023-08-31T16:04:42;6.57;;;5.90;;
82779;SDS011;72511;45.120;20.720;2023-08-31T16:14:47;5.47;;;4.97;;
82779;SDS011;72511;45.120;20.720;2023-08-31T16:24:47;6.72;;;5.38;;
82779;SDS011;72511;45.120;20.720;2023-08-31T16:34:51;4.18;;;3.40;;
82779;SDS011;72511;45.120;20.720;2023-08-31T16:44:52;4.35;;;2.70;;
82779;SDS011;72511;45.120;20.720;2023-08-31T16:54:53;3.05;;;2.60;;
82779;SDS011;72511;45.120;20.720;2023-08-31T17:04:54;4.10;;;2.70;;
82779;SDS011;72511;45.120;20.720;2023-08-31T17:14:55;2.85;;;2.38;;
82779;SDS011;72511;45.120;20.720;2023-08-31T17:24:55;11.10;;;3.65;;
82779;SDS011;72511;45.120;20.720;2023-08-31T17:34:56;4.15;;;2.65;;
82779;SDS011;72511;45.120;20.720;2023-08-31T17:44:56;5.90;;;3.00;;
82779;SDS011;72511;45.120;20.720;2023-08-31T17:54:57;3.35;;;2.85;;
82779;SDS011;72511;45.120;20.720;2023-08-31T18:04:57;2.90;;;2.45;;
82779;SDS011;72511;45.120;20.720;2023-08-31T18:14:58;2.58;;;2.10;;
82779;SDS011;72511;45.120;20.720;2023-08-31T18:24:58;2.78;;;1.90;;
82779;SDS011;72511;45.120;20.720;2023-08-31T18:34:59;2.92;;;2.50;;
82779;SDS011;72511;45.120;20.720;2023-08-31T18:44:59;3.45;;;2.78;;
82779;SDS011;72511;45.120;20.720;2023-08-31T18:55:00;3.22;;;2.47;;
82779;SDS011;72511;45.120;20.720;2023-08-31T19:05:00;4.93;;;3.30;;
82779;SDS011;72511;45.120;20.720;2023-08-31T19:15:01;3.65;;;3.30;;
82779;SDS011;72511;45.120;20.720;2023-08-31T19:25:02;4.87;;;3.17;;
82779;SDS011;72511;45.120;20.720;2023-08-31T19:35:02;5.07;;;3.10;;
82779;SDS011;72511;45.120;20.720;2023-08-31T19:45:04;4.68;;;3.15;;
82779;SDS011;72511;45.120;20.720;2023-08-31T19:55:05;4.10;;;2.88;;
82779;SDS011;72511;45.120;20.720;2023-08-31T20:05:07;4.18;;;3.15;;
82779;SDS011;72511;45.120;20.720;2023-08-31T20:15:07;5.80;;;3.13;;
82779;SDS011;72511;45.120;20.720;2023-08-31T20:25:09;4.63;;;3.70;;
82779;SDS011;72511;45.120;20.720;2023-08-31T20:35:09;6.05;;;4.05;;
82779;SDS011;72511;45.120;20.720;2023-08-31T20:45:10;5.73;;;3.57;;
82779;SDS011;72511;45.120;20.720;2023-08-31T20:55:11;5.70;;;4.95;;
82779;SDS011;72511;45.120;20.720;2023-08-31T21:05:12;6.20;;;5.37;;
82779;SDS011;72511;45.120;20.720;2023-08-31T21:15:12;4.90;;;4.10;;
82779;SDS011;72511;45.120;20.720;2023-08-31T21:25:13;5.13;;;3.33;;
82779;SDS011;72511;45.120;20.720;2023-08-31T21:35:14;7.00;;;3.50;;
82779;SDS011;72511;45.120;20.720;2023-08-31T21:45:14;4.00;;;3.57;;
82779;SDS011;72511;45.120;20.720;2023-08-31T21:55:15;3.97;;;3.50;;
82779;SDS011;72511;45.120;20.720;2023-08-31T22:05:16;4.33;;;3.60;;
82779;SDS011;72511;45.120;20.720;2023-08-31T22:15:17;4.40;;;3.90;;
82779;SDS011;72511;45.120;20.720;2023-08-31T22:25:19;3.63;;;3.30;;
82779;SDS011;72511;45.120;20.720;2023-08-31T22:35:21;4.47;;;3.40;;
82779;SDS011;72511;45.120;20.720;2023-08-31T22:45:22;5.05;;;4.00;;
82779;SDS011;72511;45.120;20.720;2023-08-31T22:55:23;3.92;;;3.58;;
82779;SDS011;72511;45.120;20.720;2023-08-31T23:05:24;3.92;;;3.30;;
82779;SDS011;72511;45.120;20.720;2023-08-31T23:15:24;6.07;;;4.07;;
82779;SDS011;72511;45.120;20.720;2023-08-31T23:25:25;5.60;;;3.88;;
82779;SDS011;72511;45.120;20.720;2023-08-31T23:35:26;5.63;;;4.07;;
82779;SDS011;72511;45.120;20.720;2023-08-31T23:45:26;4.07;;;3.47;;
82779;SDS011;72511;45.120;20.720;2023-08-31T23:55:27;7.57;;;4.63;;
